createdAt,value
2023-04-18T00:00:21.337Z,12.83
2023-04-18T00:03:24.124Z,13.73
2023-04-18T00:06:26.875Z,13.63
2023-04-18T00:09:28.902Z,14.00
2023-04-18T00:12:32.103Z,14.30
2023-04-18T00:15:35.700Z,14.97
2023-04-18T00:18:37.684Z,13.90
2023-04-18T00:21:45.132Z,13.67
2023-04-18T00:24:47.557Z,13.30
2023-04-18T00:27:49.581Z,13.50
2023-04-18T00:30:52.780Z,13.23
2023-04-18T00:33:54.970Z,13.93
2023-04-18T00:36:58.982Z,12.77
2023-04-18T00:40:00.955Z,13.07
2023-04-18T00:43:03.213Z,12.83
2023-04-18T00:46:05.403Z,12.60
2023-04-18T00:49:08.223Z,13.17
2023-04-18T00:52:12.153Z,13.90
2023-04-18T00:55:16.404Z,10.93
2023-04-18T00:58:18.399Z,12.00
2023-04-18T01:01:20.449Z,13.70
2023-04-18T01:04:22.718Z,12.67
2023-04-18T01:07:26.671Z,13.33
2023-04-18T01:10:32.041Z,12.97
2023-04-18T01:13:34.067Z,12.73
2023-04-18T01:16:39.044Z,12.37
2023-04-18T01:19:41.129Z,12.30
2023-04-18T01:22:43.392Z,12.83
2023-04-18T01:25:47.206Z,11.73
2023-04-18T01:28:49.199Z,12.83
2023-04-18T01:31:51.230Z,10.77
2023-04-18T01:34:53.211Z,9.97
2023-04-18T01:37:55.632Z,12.63
2023-04-18T01:40:57.565Z,12.73
2023-04-18T01:44:00.208Z,11.67
2023-04-18T01:47:02.589Z,12.53
2023-04-18T01:50:08.100Z,12.03
2023-04-18T01:53:10.062Z,12.30
2023-04-18T01:56:12.058Z,13.37
2023-04-18T01:59:14.085Z,12.20
2023-04-18T02:02:16.534Z,13.37
2023-04-18T02:05:19.060Z,12.13
2023-04-18T02:08:21.386Z,14.27
2023-04-18T02:11:23.360Z,14.27
2023-04-18T02:14:30.248Z,13.20
2023-04-18T02:17:36.473Z,12.33
2023-04-18T02:20:38.734Z,14.20
2023-04-18T02:23:40.754Z,11.83
2023-04-18T02:26:43.378Z,12.67
2023-04-18T02:29:46.026Z,13.07
2023-04-18T02:32:52.265Z,12.23
2023-04-18T02:35:54.330Z,12.23
2023-04-18T02:38:56.704Z,11.20
2023-04-18T02:41:59.030Z,12.77
2023-04-18T02:45:01.026Z,11.93
2023-04-18T02:48:03.099Z,10.93
2023-04-18T02:51:07.779Z,10.80
2023-04-18T02:54:12.059Z,9.50
2023-04-18T02:57:30.000Z,10.17
2023-04-18T03:00:37.517Z,10.00
2023-04-18T03:03:59.927Z,9.63
2023-04-18T03:07:09.578Z,8.90
2023-04-18T03:10:13.894Z,9.37
2023-04-18T03:13:17.635Z,7.77
2023-04-18T03:16:20.033Z,8.27
2023-04-18T03:19:23.836Z,9.47
2023-04-18T03:22:27.935Z,8.70
2023-04-18T03:25:34.584Z,10.30
2023-04-18T03:28:37.618Z,6.87
2023-04-18T03:31:41.769Z,8.00
2023-04-18T03:34:44.320Z,8.37
2023-04-18T03:37:46.481Z,6.23
2023-04-18T03:40:55.440Z,6.87
2023-04-18T03:44:05.387Z,6.00
2023-04-18T03:47:11.382Z,7.10
2023-04-18T03:50:16.733Z,6.77
2023-04-18T03:53:20.531Z,5.83
2023-04-18T03:56:23.575Z,6.57
2023-04-18T03:59:27.590Z,5.50
2023-04-18T04:02:30.748Z,7.00
2023-04-18T04:05:33.186Z,6.27
2023-04-18T04:08:35.213Z,8.37
2023-04-18T04:11:37.907Z,6.47
2023-04-18T04:14:42.505Z,7.07
2023-04-18T04:17:44.754Z,6.03
2023-04-18T04:20:48.103Z,5.80
2023-04-18T04:24:10.634Z,7.13
2023-04-18T04:27:19.133Z,7.53
2023-04-18T04:30:21.914Z,7.17
2023-04-18T04:33:26.044Z,6.80
2023-04-18T04:36:30.890Z,6.73
2023-04-18T04:39:34.326Z,7.13
2023-04-18T04:42:56.947Z,7.37
2023-04-18T04:46:07.823Z,7.03
2023-04-18T04:49:09.960Z,8.60
2023-04-18T04:52:12.030Z,5.93
2023-04-18T04:55:14.098Z,6.20
2023-04-18T04:58:18.002Z,5.53
2023-04-18T05:01:59.869Z,5.57
2023-04-18T05:05:01.972Z,5.27
2023-04-18T05:08:04.943Z,6.27
2023-04-18T05:11:07.079Z,6.20
2023-04-18T05:14:09.224Z,5.70
2023-04-18T05:17:11.281Z,5.77
2023-04-18T05:20:13.353Z,5.67
2023-04-18T05:23:15.372Z,7.23
2023-04-18T05:26:18.874Z,5.90
2023-04-18T05:29:20.913Z,5.13
2023-04-18T05:32:24.221Z,5.37
2023-04-18T05:35:26.396Z,5.47
2023-04-18T05:38:28.389Z,5.80
2023-04-18T05:41:30.554Z,6.57
2023-04-18T05:44:32.598Z,5.37
2023-04-18T05:47:34.667Z,5.67
2023-04-18T05:50:36.814Z,6.27
2023-04-18T05:53:38.869Z,6.07
2023-04-18T05:56:41.053Z,5.33
2023-04-18T05:59:43.260Z,6.17
2023-04-18T06:02:45.386Z,4.77
2023-04-18T06:05:47.507Z,4.40
2023-04-18T06:08:49.537Z,4.43
2023-04-18T06:11:51.557Z,4.23
2023-04-18T06:14:53.598Z,4.37
2023-04-18T06:17:55.660Z,4.47
2023-04-18T06:20:57.729Z,4.20
2023-04-18T06:24:01.508Z,4.83
2023-04-18T06:27:03.902Z,4.40
2023-04-18T06:30:07.868Z,4.60
2023-04-18T06:33:11.242Z,3.77
2023-04-18T06:36:13.298Z,3.77
2023-04-18T06:39:15.393Z,3.90
2023-04-18T06:42:17.699Z,4.90
2023-04-18T06:45:22.854Z,3.40
2023-04-18T06:48:24.884Z,3.43
2023-04-18T06:51:27.732Z,3.43
2023-04-18T06:54:29.780Z,3.37
2023-04-18T06:57:31.824Z,4.60
2023-04-18T07:00:33.899Z,3.10
2023-04-18T07:03:36.079Z,2.90
2023-04-18T07:06:38.310Z,2.93
2023-04-18T07:09:40.386Z,2.87
2023-04-18T07:12:42.344Z,2.50
2023-04-18T07:15:44.470Z,2.77
2023-04-18T07:18:46.435Z,2.50
2023-04-18T07:21:48.483Z,2.67
2023-04-18T07:24:50.579Z,4.23
2023-04-18T07:27:52.559Z,3.43
2023-04-18T07:30:57.045Z,3.00
2023-04-18T07:33:59.193Z,4.37
2023-04-18T07:37:01.497Z,2.30
2023-04-18T07:40:04.514Z,3.27
2023-04-18T07:43:06.502Z,3.30
2023-04-18T07:46:08.725Z,2.80
2023-04-18T07:49:10.926Z,2.40
2023-04-18T07:52:13.042Z,2.67
2023-04-18T07:55:15.140Z,2.50
2023-04-18T07:58:17.600Z,3.10
2023-04-18T08:01:21.237Z,3.67
2023-04-18T08:04:23.488Z,4.47
2023-04-18T08:07:25.983Z,3.17
2023-04-18T08:10:28.347Z,2.80
2023-04-18T08:13:30.585Z,3.27
2023-04-18T08:16:32.645Z,3.43
2023-04-18T08:19:34.770Z,4.40
2023-04-18T08:22:44.185Z,3.57
2023-04-18T08:25:58.915Z,3.33
2023-04-18T08:29:00.960Z,6.80
2023-04-18T08:32:03.142Z,4.13
2023-04-18T08:35:05.497Z,5.20
2023-04-18T08:38:07.803Z,4.43
2023-04-18T08:41:09.986Z,4.23
2023-04-18T08:44:12.540Z,3.80
2023-04-18T08:47:14.888Z,6.57
2023-04-18T08:50:17.513Z,3.67
2023-04-18T08:53:19.573Z,6.53
2023-04-18T08:56:26.188Z,6.00
2023-04-18T08:59:28.296Z,4.93
2023-04-18T09:02:39.191Z,4.10
2023-04-18T09:05:41.560Z,4.70
2023-04-18T09:08:55.061Z,5.33
2023-04-18T09:12:18.540Z,5.13
2023-04-18T09:15:23.871Z,4.30
2023-04-18T09:18:26.120Z,5.03
2023-04-18T09:21:29.899Z,5.57
2023-04-18T09:24:32.672Z,5.77
2023-04-18T09:27:35.413Z,4.60
2023-04-18T09:30:40.196Z,5.07
2023-04-18T09:33:57.110Z,4.77
2023-04-18T09:37:07.966Z,4.17
2023-04-18T09:40:20.543Z,5.73
2023-04-18T09:43:22.577Z,7.87
2023-04-18T09:46:25.550Z,5.43
2023-04-18T09:49:27.871Z,6.73
2023-04-18T09:52:40.375Z,5.73
2023-04-18T09:55:43.156Z,5.17
2023-04-18T09:58:47.637Z,5.23
2023-04-18T10:01:50.970Z,7.27
2023-04-18T10:04:56.273Z,9.27
2023-04-18T10:07:58.850Z,5.77
2023-04-18T10:11:01.339Z,6.53
2023-04-18T10:14:08.006Z,5.43
2023-04-18T10:17:11.316Z,5.70
2023-04-18T10:20:20.286Z,5.13
2023-04-18T10:23:34.978Z,5.67
2023-04-18T10:26:50.573Z,5.37
2023-04-18T10:29:54.985Z,5.40
2023-04-18T10:32:57.044Z,6.10
2023-04-18T10:36:20.782Z,5.67
2023-04-18T10:39:24.452Z,5.70
2023-04-18T10:42:58.743Z,5.13
2023-04-18T10:46:23.988Z,7.70
2023-04-18T10:49:35.403Z,5.57
2023-04-18T10:52:37.565Z,5.90
2023-04-18T10:55:44.885Z,5.50
2023-04-18T10:58:51.524Z,6.83
2023-04-18T11:02:04.780Z,7.97
2023-04-18T11:05:08.640Z,5.80
2023-04-18T11:08:29.052Z,7.53
2023-04-18T11:11:31.014Z,8.37
2023-04-18T11:14:48.453Z,6.23
2023-04-18T11:18:04.711Z,6.97
2023-04-18T11:21:06.847Z,6.20
2023-04-18T11:24:08.975Z,6.50
2023-04-18T11:27:12.473Z,6.97
2023-04-18T11:30:15.816Z,7.33
2023-04-18T11:33:18.096Z,7.30
2023-04-18T11:36:20.235Z,7.10
2023-04-18T11:39:22.892Z,7.77
2023-04-18T11:42:31.179Z,6.83
2023-04-18T11:45:33.829Z,6.70
2023-04-18T11:48:40.929Z,6.80
2023-04-18T11:51:46.419Z,7.03
2023-04-18T11:54:48.630Z,6.80
2023-04-18T11:58:00.697Z,5.97
2023-04-18T12:01:18.773Z,6.03
2023-04-18T12:04:21.345Z,6.50
2023-04-18T12:07:33.914Z,6.47
2023-04-18T12:10:38.726Z,7.50
2023-04-18T12:13:40.816Z,6.73
2023-04-18T12:16:42.847Z,6.33
2023-04-18T12:19:49.673Z,7.40
2023-04-18T12:22:54.399Z,6.73
2023-04-18T12:26:01.506Z,6.80
2023-04-18T12:29:03.484Z,6.77
2023-04-18T12:32:06.341Z,8.50
2023-04-18T12:35:08.981Z,6.57
2023-04-18T12:38:11.236Z,8.17
2023-04-18T12:41:13.222Z,7.23
2023-04-18T12:44:16.488Z,7.10
2023-04-18T12:47:18.736Z,7.60
2023-04-18T12:50:26.050Z,6.60
2023-04-18T12:53:28.311Z,6.27
2023-04-18T12:56:30.325Z,6.00
2023-04-18T12:59:32.390Z,5.70
2023-04-18T13:02:37.557Z,6.97
2023-04-18T13:05:39.759Z,6.30
2023-04-18T13:08:42.907Z,6.00
2023-04-18T13:11:45.252Z,5.60
2023-04-18T13:14:47.219Z,5.30
2023-04-18T13:17:49.808Z,5.23
2023-04-18T13:20:52.739Z,5.30
2023-04-18T13:23:54.894Z,6.40
2023-04-18T13:26:57.066Z,6.70
2023-04-18T13:29:59.073Z,6.13
2023-04-18T13:33:01.089Z,7.33
2023-04-18T13:36:03.424Z,6.37
2023-04-18T13:39:05.977Z,6.40
2023-04-18T13:42:08.215Z,6.07
2023-04-18T13:45:10.794Z,7.60
2023-04-18T13:48:14.447Z,6.03
2023-04-18T13:51:18.228Z,5.53
2023-04-18T13:54:20.337Z,6.10
2023-04-18T13:57:23.414Z,5.67
2023-04-18T14:00:25.527Z,5.63
2023-04-18T14:03:28.809Z,5.43
2023-04-18T14:06:32.745Z,6.30
2023-04-18T14:09:34.912Z,6.77
2023-04-18T14:12:37.020Z,5.70
2023-04-18T14:15:39.256Z,5.07
2023-04-18T14:18:41.359Z,5.20
2023-04-18T14:21:43.327Z,5.87
2023-04-18T14:24:45.648Z,5.13
2023-04-18T14:27:48.878Z,5.37
2023-04-18T14:30:52.213Z,5.27
2023-04-18T14:33:54.374Z,5.23
2023-04-18T14:36:56.418Z,5.37
2023-04-18T14:39:58.397Z,4.30
2023-04-18T14:43:00.754Z,6.40
2023-04-18T14:46:02.772Z,4.43
2023-04-18T14:49:04.756Z,8.77
2023-04-18T14:52:06.807Z,6.37
2023-04-18T14:55:09.819Z,5.03
2023-04-18T14:58:11.819Z,5.00
2023-04-18T15:01:13.900Z,5.27
2023-04-18T15:04:16.276Z,5.07
2023-04-18T15:07:18.643Z,5.13
2023-04-18T15:10:22.693Z,4.70
2023-04-18T15:13:25.451Z,5.23
2023-04-18T15:16:27.726Z,5.83
2023-04-18T15:19:31.286Z,4.77
2023-04-18T15:22:34.058Z,5.37
2023-04-18T15:25:36.077Z,7.07
2023-04-18T15:28:38.119Z,7.20
2023-04-18T15:31:40.106Z,7.40
2023-04-18T15:34:42.127Z,7.93
2023-04-18T15:37:44.180Z,7.33
2023-04-18T15:40:46.208Z,6.03
2023-04-18T15:43:48.359Z,7.47
2023-04-18T15:46:50.919Z,5.83
2023-04-18T15:49:53.484Z,6.03
2023-04-18T15:52:56.577Z,6.10
2023-04-18T15:56:01.892Z,6.57
2023-04-18T15:59:06.033Z,6.87
2023-04-18T16:02:09.710Z,6.23
2023-04-18T16:05:12.637Z,7.20
2023-04-18T16:08:14.896Z,7.67
2023-04-18T16:11:17.353Z,6.97
2023-04-18T16:14:19.540Z,7.07
2023-04-18T16:17:21.584Z,7.73
2023-04-18T16:20:23.831Z,7.83
2023-04-18T16:23:26.614Z,8.33
2023-04-18T16:26:29.190Z,8.10
2023-04-18T16:29:31.221Z,7.60
2023-04-18T16:32:33.365Z,9.53
2023-04-18T16:35:35.809Z,10.13
2023-04-18T16:38:37.982Z,9.70
2023-04-18T16:41:39.948Z,9.63
2023-04-18T16:44:42.085Z,9.87
2023-04-18T16:47:44.078Z,10.30
2023-04-18T16:50:46.196Z,9.20
2023-04-18T16:53:48.287Z,11.73
2023-04-18T16:56:50.404Z,9.73
2023-04-18T16:59:52.529Z,12.20
2023-04-18T17:02:56.315Z,11.83
2023-04-18T17:05:58.662Z,11.83
2023-04-18T17:09:01.004Z,13.00
2023-04-18T17:12:03.580Z,13.90
2023-04-18T17:15:06.074Z,14.57
2023-04-18T17:18:08.471Z,13.00
2023-04-18T17:21:12.751Z,11.43
2023-04-18T17:24:14.954Z,12.13
2023-04-18T17:27:17.391Z,11.40
2023-04-18T17:30:19.966Z,11.33
2023-04-18T17:33:22.317Z,11.87
2023-04-18T17:36:25.375Z,10.63
2023-04-18T17:39:28.043Z,10.43
2023-04-18T17:42:31.283Z,11.20
2023-04-18T17:45:33.524Z,13.20
2023-04-18T17:48:35.840Z,9.03
2023-04-18T17:51:38.360Z,10.27
2023-04-18T17:54:41.412Z,10.43
2023-04-18T17:57:43.814Z,10.93
2023-04-18T18:00:46.998Z,10.40
2023-04-18T18:03:50.263Z,11.87
2023-04-18T18:06:58.470Z,10.53
2023-04-18T18:10:10.250Z,11.57
2023-04-18T18:13:13.191Z,21.00
2023-04-18T18:16:16.697Z,12.83
2023-04-18T18:19:21.607Z,10.97
2023-04-18T18:22:26.530Z,14.00
2023-04-18T18:25:29.365Z,15.53
2023-04-18T18:28:32.883Z,14.27
2023-04-18T18:31:39.508Z,14.27
2023-04-18T18:34:43.125Z,14.13
2023-04-18T18:37:49.083Z,13.30
2023-04-18T18:40:52.337Z,13.30
2023-04-18T18:43:55.128Z,14.80
2023-04-18T18:46:59.437Z,14.80
2023-04-18T18:50:05.342Z,12.93
2023-04-18T18:53:08.742Z,13.20
2023-04-18T18:56:11.760Z,15.47
2023-04-18T18:59:16.416Z,14.83
2023-04-18T19:02:19.723Z,13.53
2023-04-18T19:05:23.400Z,13.83
2023-04-18T19:08:26.242Z,14.47
2023-04-18T19:11:31.058Z,15.70
2023-04-18T19:14:35.075Z,14.80
2023-04-18T19:17:38.330Z,15.47
2023-04-18T19:20:42.532Z,14.83
2023-04-18T19:23:47.362Z,15.60
2023-04-18T19:26:50.240Z,16.73
2023-04-18T19:29:53.365Z,16.27
2023-04-18T19:32:55.986Z,15.90
2023-04-18T19:35:59.413Z,16.40
2023-04-18T19:39:02.442Z,14.77
2023-04-18T19:42:05.456Z,14.67
2023-04-18T19:45:08.095Z,16.47
2023-04-18T19:48:11.233Z,16.80
2023-04-18T19:51:17.093Z,13.67
2023-04-18T19:54:22.012Z,13.40
2023-04-18T19:57:25.851Z,15.37
2023-04-18T20:00:30.249Z,13.47
2023-04-18T20:03:34.882Z,15.37
2023-04-18T20:06:37.792Z,16.37
2023-04-18T20:09:42.648Z,13.20
2023-04-18T20:12:45.551Z,15.53
2023-04-18T20:15:48.651Z,14.47
2023-04-18T20:18:54.800Z,14.67
2023-04-18T20:21:57.571Z,16.30
2023-04-18T20:25:02.290Z,14.87
2023-04-18T20:28:05.032Z,15.57
2023-04-18T20:31:08.098Z,12.33
2023-04-18T20:34:10.881Z,13.93
2023-04-18T20:37:16.591Z,13.80
2023-04-18T20:40:19.076Z,14.80
2023-04-18T20:43:29.138Z,12.60
2023-04-18T20:46:33.271Z,11.57
2023-04-18T20:49:36.195Z,12.80
2023-04-18T20:52:38.828Z,15.90
2023-04-18T20:55:41.132Z,15.27
2023-04-18T20:58:43.728Z,12.37
2023-04-18T21:01:48.715Z,13.70
2023-04-18T21:04:51.365Z,12.20
2023-04-18T21:07:53.502Z,14.27
2023-04-18T21:10:55.744Z,14.33
2023-04-18T21:13:57.809Z,13.17
2023-04-18T21:17:00.666Z,12.30
2023-04-18T21:20:03.691Z,12.27
2023-04-18T21:23:06.297Z,16.50
2023-04-18T21:26:13.765Z,13.83
2023-04-18T21:29:16.031Z,12.57
2023-04-18T21:32:18.120Z,16.07
2023-04-18T21:35:21.913Z,14.60
2023-04-18T21:38:26.105Z,14.50
2023-04-18T21:41:28.504Z,14.70
2023-04-18T21:44:30.795Z,12.70
2023-04-18T21:47:33.254Z,14.10
2023-04-18T21:50:37.754Z,15.20
2023-04-18T21:53:41.183Z,13.43
2023-04-18T21:56:43.809Z,14.03
2023-04-18T21:59:46.056Z,14.73
2023-04-18T22:02:48.429Z,14.03
2023-04-18T22:05:52.824Z,16.53
2023-04-18T22:08:54.939Z,13.93
2023-04-18T22:11:57.245Z,14.50
2023-04-18T22:14:59.527Z,14.33
2023-04-18T22:18:02.012Z,14.30
2023-04-18T22:21:04.434Z,15.20
2023-04-18T22:24:07.390Z,14.07
2023-04-18T22:27:09.648Z,16.03
2023-04-18T22:30:12.618Z,15.17
2023-04-18T22:33:14.817Z,15.00
2023-04-18T22:36:16.958Z,14.40
2023-04-18T22:39:19.183Z,17.57
2023-04-18T22:42:21.362Z,15.63
2023-04-18T22:45:23.689Z,19.17
2023-04-18T22:48:25.967Z,15.40
2023-04-18T22:51:29.034Z,19.63
2023-04-18T22:54:31.301Z,16.87
2023-04-18T22:57:33.467Z,15.80
2023-04-18T23:00:36.025Z,15.20
2023-04-18T23:03:38.463Z,17.07
2023-04-18T23:06:40.943Z,14.47
2023-04-18T23:09:43.233Z,15.10
2023-04-18T23:12:45.556Z,18.27
2023-04-18T23:15:47.817Z,14.20
2023-04-18T23:18:50.157Z,14.90
2023-04-18T23:21:52.418Z,15.10
2023-04-18T23:24:55.483Z,11.60
2023-04-18T23:27:57.626Z,14.53
2023-04-18T23:30:59.719Z,14.93
2023-04-18T23:34:01.876Z,15.87
2023-04-18T23:37:04.056Z,13.97
2023-04-18T23:40:07.072Z,14.80
2023-04-18T23:43:09.142Z,13.93
2023-04-18T23:46:12.321Z,13.80
2023-04-18T23:49:14.982Z,13.57
2023-04-18T23:52:17.317Z,12.27
2023-04-18T23:55:19.450Z,15.73
2023-04-18T23:58:21.541Z,15.40
